createdAt,value
2019-06-26T00:01:49.955Z,8.33
2019-06-26T00:04:20.121Z,9.45
2019-06-26T00:06:50.149Z,9.15
2019-06-26T00:09:20.168Z,8.83
2019-06-26T00:11:50.207Z,9.75
2019-06-26T00:14:20.319Z,9.45
2019-06-26T00:16:50.401Z,12.03
2019-06-26T00:19:20.545Z,10.03
2019-06-26T00:21:50.623Z,11.08
2019-06-26T00:24:20.678Z,11.73
2019-06-26T00:26:50.827Z,11.85
2019-06-26T00:29:20.947Z,10.63
2019-06-26T00:31:51.191Z,11.60
2019-06-26T00:34:21.263Z,14.87
2019-06-26T00:36:51.355Z,12.45
2019-06-26T00:39:21.416Z,10.45
2019-06-26T00:41:51.553Z,10.90
2019-06-26T00:44:21.602Z,11.45
2019-06-26T00:46:51.713Z,10.78
2019-06-26T00:49:21.686Z,10.63
2019-06-26T00:51:51.776Z,16.35
2019-06-26T00:54:21.855Z,11.22
2019-06-26T00:56:51.978Z,10.60
2019-06-26T00:59:21.965Z,9.28
2019-06-26T01:01:52.268Z,10.65
2019-06-26T01:04:26.654Z,11.22
2019-06-26T01:06:56.761Z,12.15
2019-06-26T01:09:26.848Z,11.83
2019-06-26T01:11:56.965Z,11.12
2019-06-26T01:14:26.964Z,11.05
2019-06-26T01:16:57.087Z,11.10
2019-06-26T01:19:27.152Z,11.78
2019-06-26T01:21:57.248Z,12.78
2019-06-26T01:24:27.329Z,11.68
2019-06-26T01:26:57.410Z,10.98
2019-06-26T01:29:27.480Z,10.80
2019-06-26T01:31:57.560Z,13.50
2019-06-26T01:34:27.626Z,13.05
2019-06-26T01:36:57.679Z,11.65
2019-06-26T01:39:27.743Z,11.60
2019-06-26T01:41:57.846Z,11.88
2019-06-26T01:44:27.905Z,10.75
2019-06-26T01:46:57.933Z,13.55
2019-06-26T01:49:27.994Z,12.73
2019-06-26T01:51:58.143Z,10.23
2019-06-26T01:54:28.207Z,11.50
2019-06-26T01:56:59.355Z,11.43
2019-06-26T01:59:29.420Z,12.15
2019-06-26T02:01:59.520Z,15.32
2019-06-26T02:04:29.507Z,11.95
2019-06-26T02:06:59.593Z,13.98
2019-06-26T02:09:29.686Z,13.18
2019-06-26T02:12:00.639Z,13.50
2019-06-26T02:14:31.877Z,13.58
2019-06-26T02:17:02.201Z,14.70
2019-06-26T02:19:32.175Z,15.25
2019-06-26T02:22:02.286Z,11.10
2019-06-26T02:24:32.375Z,13.13
2019-06-26T02:27:02.481Z,13.18
2019-06-26T02:29:32.405Z,17.23
2019-06-26T02:32:02.492Z,14.83
2019-06-26T02:34:32.563Z,12.40
2019-06-26T02:37:02.685Z,14.60
2019-06-26T02:39:32.683Z,14.90
2019-06-26T02:42:02.787Z,15.60
2019-06-26T02:44:51.393Z,17.20
2019-06-26T02:47:18.877Z,17.85
2019-06-26T02:49:36.338Z,15.68
2019-06-26T02:52:06.428Z,16.07
2019-06-26T02:54:36.768Z,13.95
2019-06-26T02:57:06.865Z,15.90
2019-06-26T02:59:36.927Z,14.73
2019-06-26T03:02:07.015Z,20.10
2019-06-26T03:04:38.096Z,15.32
2019-06-26T03:07:08.216Z,15.65
2019-06-26T03:09:38.319Z,16.48
2019-06-26T03:12:08.442Z,18.10
2019-06-26T03:14:38.496Z,16.75
2019-06-26T03:17:08.604Z,16.48
2019-06-26T03:19:38.691Z,14.45
2019-06-26T03:22:09.999Z,19.05
2019-06-26T03:24:40.063Z,14.45
2019-06-26T03:27:10.092Z,16.12
2019-06-26T03:29:51.622Z,16.25
2019-06-26T03:32:21.648Z,14.63
2019-06-26T03:34:51.700Z,12.15
2019-06-26T03:37:21.788Z,13.65
2019-06-26T03:39:51.878Z,13.32
2019-06-26T03:42:21.893Z,13.78
2019-06-26T03:44:51.903Z,13.48
2019-06-26T03:47:21.995Z,12.88
2019-06-26T03:49:52.066Z,14.53
2019-06-26T03:52:22.062Z,12.43
2019-06-26T03:54:52.348Z,13.28
2019-06-26T03:57:22.416Z,13.75
2019-06-26T03:59:52.496Z,11.40
2019-06-26T04:02:22.487Z,13.43
2019-06-26T04:04:52.651Z,11.20
2019-06-26T04:07:22.708Z,10.20
2019-06-26T04:09:52.783Z,8.68
2019-06-26T04:12:22.851Z,12.23
2019-06-26T04:14:52.869Z,9.08
2019-06-26T04:17:23.911Z,9.73
2019-06-26T04:19:53.916Z,10.70
2019-06-26T04:22:23.983Z,9.78
2019-06-26T04:24:53.989Z,8.43
2019-06-26T04:27:23.881Z,8.00
2019-06-26T04:29:53.949Z,7.97
2019-06-26T04:32:24.004Z,7.08
2019-06-26T04:34:54.624Z,7.83
2019-06-26T04:37:24.603Z,7.90
2019-06-26T04:39:54.536Z,8.28
2019-06-26T04:42:24.580Z,7.17
2019-06-26T04:44:54.600Z,8.33
2019-06-26T04:47:24.555Z,6.37
2019-06-26T04:49:54.643Z,6.75
2019-06-26T04:52:24.812Z,6.47
2019-06-26T04:54:54.787Z,9.40
2019-06-26T04:57:24.844Z,7.40
2019-06-26T04:59:54.914Z,5.40
2019-06-26T05:02:24.970Z,6.53
2019-06-26T05:04:55.055Z,5.25
2019-06-26T05:07:25.119Z,5.42
2019-06-26T05:09:55.215Z,7.67
2019-06-26T05:12:44.380Z,8.00
2019-06-26T05:15:14.855Z,6.55
2019-06-26T05:17:44.951Z,5.83
2019-06-26T05:20:15.033Z,6.30
2019-06-26T05:22:45.029Z,5.47
2019-06-26T05:25:15.221Z,7.22
2019-06-26T05:27:45.270Z,6.42
2019-06-26T05:30:15.560Z,5.37
2019-06-26T05:32:45.855Z,4.92
2019-06-26T05:35:15.919Z,6.03
2019-06-26T05:37:45.899Z,4.47
2019-06-26T05:40:16.380Z,4.90
2019-06-26T05:42:46.442Z,7.03
2019-06-26T05:45:16.832Z,6.83
2019-06-26T05:47:46.896Z,5.75
2019-06-26T05:50:17.605Z,7.28
2019-06-26T05:52:47.641Z,6.25
2019-06-26T05:55:17.755Z,6.62
2019-06-26T05:57:48.613Z,6.28
2019-06-26T06:00:18.912Z,6.00
2019-06-26T06:02:48.896Z,5.35
2019-06-26T06:05:19.576Z,6.08
2019-06-26T06:07:49.651Z,4.65
2019-06-26T06:10:19.804Z,5.40
2019-06-26T06:12:49.803Z,5.40
2019-06-26T06:15:19.871Z,5.65
2019-06-26T06:17:49.964Z,4.72
2019-06-26T06:20:27.048Z,7.55
2019-06-26T06:22:57.018Z,8.00
2019-06-26T06:25:27.124Z,4.75
2019-06-26T06:27:57.079Z,6.87
2019-06-26T06:30:27.260Z,7.10
2019-06-26T06:32:57.315Z,7.42
2019-06-26T06:35:27.413Z,6.50
2019-06-26T06:37:57.483Z,6.90
2019-06-26T06:40:27.588Z,7.72
2019-06-26T06:42:57.582Z,7.55
2019-06-26T06:45:28.304Z,8.38
2019-06-26T06:47:58.357Z,7.05
2019-06-26T06:50:28.419Z,4.55
2019-06-26T06:52:58.472Z,6.45
2019-06-26T06:55:28.548Z,5.75
2019-06-26T06:57:58.618Z,6.00
2019-06-26T07:00:28.711Z,6.08
2019-06-26T07:02:58.783Z,5.00
2019-06-26T07:05:28.788Z,5.17
2019-06-26T07:07:58.779Z,6.12
2019-06-26T07:10:28.855Z,5.28
2019-06-26T07:12:58.859Z,4.90
2019-06-26T07:15:28.952Z,7.08
2019-06-26T07:17:59.009Z,6.17
2019-06-26T07:20:29.432Z,6.12
2019-06-26T07:22:59.407Z,8.55
2019-06-26T07:25:29.403Z,5.37
2019-06-26T07:28:01.774Z,8.10
2019-06-26T07:30:31.160Z,4.53
2019-06-26T07:33:01.211Z,7.72
2019-06-26T07:35:31.297Z,8.63
2019-06-26T07:38:01.364Z,8.33
2019-06-26T07:40:31.448Z,4.55
2019-06-26T07:43:01.368Z,4.65
2019-06-26T07:45:31.380Z,4.40
2019-06-26T07:48:01.287Z,6.17
2019-06-26T07:50:32.569Z,6.08
2019-06-26T07:53:03.834Z,8.50
2019-06-26T07:55:33.916Z,4.55
2019-06-26T07:58:03.965Z,5.40
2019-06-26T08:00:34.044Z,9.63
2019-06-26T08:03:04.720Z,5.03
2019-06-26T08:05:34.983Z,7.05
2019-06-26T08:08:05.032Z,7.95
2019-06-26T08:10:35.112Z,6.55
2019-06-26T08:13:05.582Z,7.30
2019-06-26T08:15:35.660Z,4.45
2019-06-26T08:18:05.716Z,7.30
2019-06-26T08:20:50.263Z,5.85
2019-06-26T08:23:07.401Z,7.17
2019-06-26T08:25:37.380Z,8.08
2019-06-26T08:28:07.410Z,5.60
2019-06-26T08:30:37.492Z,4.35
2019-06-26T08:33:07.557Z,6.22
2019-06-26T08:35:37.624Z,5.58
2019-06-26T08:38:12.555Z,6.87
2019-06-26T08:40:39.336Z,5.62
2019-06-26T08:43:10.227Z,7.20
2019-06-26T08:45:40.357Z,4.72
2019-06-26T08:48:22.916Z,7.20
2019-06-26T08:50:42.193Z,4.58
2019-06-26T08:53:12.221Z,5.90
2019-06-26T08:55:42.862Z,6.50
2019-06-26T08:58:12.899Z,5.75
2019-06-26T09:00:47.439Z,5.90
2019-06-26T09:03:19.161Z,7.22
2019-06-26T09:05:49.227Z,6.17
2019-06-26T09:08:19.399Z,9.90
2019-06-26T09:10:49.532Z,6.58
2019-06-26T09:13:19.571Z,5.58
2019-06-26T09:15:50.179Z,5.87
2019-06-26T09:18:34.837Z,5.78
2019-06-26T09:20:53.300Z,4.80
2019-06-26T09:23:23.399Z,9.38
2019-06-26T09:25:53.568Z,5.83
2019-06-26T09:28:24.009Z,5.70
2019-06-26T09:30:54.110Z,6.60
2019-06-26T09:33:24.223Z,7.35
2019-06-26T09:35:54.380Z,8.38
2019-06-26T09:38:24.485Z,12.55
2019-06-26T09:40:54.572Z,7.12
2019-06-26T09:43:25.004Z,8.10
2019-06-26T09:45:56.792Z,8.38
2019-06-26T09:48:29.676Z,7.30
2019-06-26T09:51:00.987Z,9.10
2019-06-26T09:53:45.883Z,8.95
2019-06-26T09:56:02.719Z,10.28
2019-06-26T09:58:32.699Z,8.20
2019-06-26T10:01:02.765Z,7.47
2019-06-26T10:03:32.807Z,6.12
2019-06-26T10:06:02.870Z,9.93
2019-06-26T10:08:32.866Z,8.83
2019-06-26T10:11:02.921Z,9.43
2019-06-26T10:13:33.087Z,7.37
2019-06-26T10:16:04.857Z,8.75
2019-06-26T10:18:35.010Z,7.90
2019-06-26T10:21:05.091Z,7.03
2019-06-26T10:23:35.207Z,8.50
2019-06-26T10:26:05.272Z,4.58
2019-06-26T10:28:35.721Z,9.40
2019-06-26T10:31:05.779Z,7.78
2019-06-26T10:33:35.864Z,15.00
2019-06-26T10:36:05.960Z,9.40
2019-06-26T10:38:36.168Z,8.98
2019-06-26T10:41:07.642Z,10.08
2019-06-26T10:43:37.824Z,7.03
2019-06-26T10:46:07.894Z,6.35
2019-06-26T10:48:37.975Z,10.98
2019-06-26T10:51:09.559Z,9.30
2019-06-26T10:53:39.554Z,9.73
2019-06-26T10:56:09.483Z,6.87
2019-06-26T10:58:39.561Z,8.20
2019-06-26T11:01:10.783Z,8.40
2019-06-26T11:03:40.855Z,8.28
2019-06-26T11:06:10.914Z,12.70
2019-06-26T11:08:40.994Z,8.13
2019-06-26T11:11:11.043Z,8.28
2019-06-26T11:13:41.105Z,8.58
2019-06-26T11:16:11.322Z,9.85
2019-06-26T11:18:41.383Z,7.33
2019-06-26T11:21:11.518Z,9.48
2019-06-26T11:23:41.556Z,9.48
2019-06-26T11:26:12.924Z,11.22
2019-06-26T11:28:43.056Z,9.50
2019-06-26T11:31:13.463Z,10.90
2019-06-26T11:33:44.728Z,10.50
2019-06-26T11:36:14.832Z,10.82
2019-06-26T11:38:45.054Z,11.38
2019-06-26T11:41:15.203Z,10.72
2019-06-26T11:43:45.276Z,18.80
2019-06-26T11:46:15.368Z,10.28
2019-06-26T11:48:45.409Z,8.83
2019-06-26T11:51:15.505Z,13.22
2019-06-26T11:53:45.627Z,10.18
2019-06-26T11:56:15.716Z,10.00
2019-06-26T11:58:46.923Z,8.70
2019-06-26T12:01:17.077Z,7.92
2019-06-26T12:03:47.180Z,10.55
2019-06-26T12:06:19.160Z,12.40
2019-06-26T12:08:49.331Z,12.47
2019-06-26T12:11:19.335Z,15.83
2019-06-26T12:13:49.489Z,10.13
2019-06-26T12:16:19.427Z,9.10
2019-06-26T12:18:49.529Z,10.68
2019-06-26T12:21:19.443Z,11.33
2019-06-26T12:23:49.551Z,12.55
2019-06-26T12:26:19.538Z,10.93
2019-06-26T12:28:49.608Z,11.28
2019-06-26T12:31:19.671Z,13.53
2019-06-26T12:33:49.740Z,7.60
2019-06-26T12:36:19.723Z,12.18
2019-06-26T12:38:49.742Z,10.30
2019-06-26T12:41:19.737Z,14.50
2019-06-26T12:43:49.755Z,9.80
2019-06-26T12:46:19.737Z,8.48
2019-06-26T12:48:49.736Z,9.98
2019-06-26T12:51:19.649Z,10.18
2019-06-26T12:53:49.716Z,10.25
2019-06-26T12:56:19.792Z,12.33
2019-06-26T12:58:49.872Z,8.20
2019-06-26T13:01:19.920Z,10.30
2019-06-26T13:03:49.931Z,12.75
2019-06-26T13:06:19.911Z,11.70
2019-06-26T13:08:50.018Z,7.30
2019-06-26T13:11:20.067Z,9.23
2019-06-26T13:14:01.929Z,9.88
2019-06-26T13:16:21.573Z,13.00
2019-06-26T13:18:51.666Z,9.38
2019-06-26T13:21:21.711Z,7.87
2019-06-26T13:23:51.805Z,9.35
2019-06-26T13:26:21.855Z,12.10
2019-06-26T13:28:51.915Z,11.18
2019-06-26T13:31:21.908Z,10.13
2019-06-26T13:33:51.959Z,10.10
2019-06-26T13:36:21.944Z,8.90
2019-06-26T13:38:51.931Z,10.98
2019-06-26T13:41:21.928Z,16.27
2019-06-26T13:43:51.927Z,9.58
2019-06-26T13:46:21.860Z,8.28
2019-06-26T13:48:51.860Z,11.15
2019-06-26T13:51:22.823Z,10.75
2019-06-26T13:53:52.869Z,16.85
2019-06-26T13:56:22.943Z,13.72
2019-06-26T13:58:53.048Z,9.10
2019-06-26T14:01:23.346Z,13.43
2019-06-26T14:03:53.398Z,16.15
2019-06-26T14:06:23.459Z,12.75
2019-06-26T14:08:53.519Z,11.60
2019-06-26T14:11:23.617Z,10.05
2019-06-26T14:13:53.515Z,7.47
2019-06-26T14:16:23.503Z,11.57
2019-06-26T14:18:53.551Z,8.28
2019-06-26T14:21:26.048Z,14.25
2019-06-26T14:23:55.220Z,13.62
2019-06-26T14:26:26.253Z,14.18
2019-06-26T14:28:56.232Z,13.20
2019-06-26T14:31:26.228Z,7.92
2019-06-26T14:33:56.271Z,9.80
2019-06-26T14:36:26.267Z,12.28
2019-06-26T14:38:56.243Z,15.98
2019-06-26T14:41:26.235Z,14.23
2019-06-26T14:43:57.255Z,8.78
2019-06-26T14:46:27.156Z,13.45
2019-06-26T14:48:57.135Z,13.32
2019-06-26T14:51:41.113Z,11.50
2019-06-26T14:53:58.839Z,15.18
2019-06-26T14:56:28.804Z,11.75
2019-06-26T14:58:58.895Z,14.50
2019-06-26T15:01:28.910Z,10.00
2019-06-26T15:03:58.875Z,13.80
2019-06-26T15:06:28.955Z,12.95
2019-06-26T15:09:07.935Z,15.08
2019-06-26T15:11:38.803Z,10.35
2019-06-26T15:14:08.844Z,10.00
2019-06-26T15:16:38.818Z,11.63
2019-06-26T15:19:08.877Z,14.47
2019-06-26T15:21:38.923Z,8.90
2019-06-26T15:24:09.983Z,14.40
2019-06-26T15:26:40.117Z,13.60
2019-06-26T15:29:10.109Z,13.13
2019-06-26T15:31:40.139Z,14.38
2019-06-26T15:34:10.200Z,9.93
2019-06-26T15:36:52.139Z,14.18
2019-06-26T15:39:22.200Z,10.35
2019-06-26T15:41:52.190Z,14.95
2019-06-26T15:44:22.183Z,11.63
2019-06-26T15:46:52.261Z,12.45
2019-06-26T15:49:22.340Z,18.48
2019-06-26T15:51:52.485Z,13.15
2019-06-26T15:54:22.719Z,9.73
2019-06-26T15:56:52.837Z,12.03
2019-06-26T15:59:22.842Z,14.47
2019-06-26T16:01:52.939Z,14.05
2019-06-26T16:04:23.008Z,12.20
2019-06-26T16:06:53.112Z,12.25
2019-06-26T16:09:24.178Z,13.35
2019-06-26T16:11:54.253Z,13.13
2019-06-26T16:14:24.241Z,14.25
2019-06-26T16:16:56.364Z,13.03
2019-06-26T16:19:26.361Z,13.58
2019-06-26T16:21:56.495Z,13.60
2019-06-26T16:24:30.029Z,19.32
2019-06-26T16:26:58.272Z,15.00
2019-06-26T16:29:28.276Z,10.35
2019-06-26T16:31:58.367Z,13.65
2019-06-26T16:34:28.428Z,16.37
2019-06-26T16:36:58.453Z,15.95
2019-06-26T16:39:28.380Z,14.05
2019-06-26T16:41:58.408Z,13.35
2019-06-26T16:44:28.500Z,11.03
2019-06-26T16:46:59.388Z,12.25
2019-06-26T16:49:29.484Z,18.80
2019-06-26T16:51:59.489Z,13.38
2019-06-26T16:54:29.493Z,14.28
2019-06-26T16:56:59.509Z,13.43
2019-06-26T16:59:29.613Z,11.75
2019-06-26T17:01:59.620Z,12.78
2019-06-26T17:04:29.711Z,20.45
2019-06-26T17:06:59.773Z,13.20
2019-06-26T17:09:29.819Z,18.25
2019-06-26T17:12:00.055Z,15.72
2019-06-26T17:14:30.121Z,14.28
2019-06-26T17:17:00.213Z,12.37
2019-06-26T17:19:30.264Z,16.35
2019-06-26T17:22:00.418Z,14.00
2019-06-26T17:24:30.360Z,12.47
2019-06-26T17:27:00.465Z,18.15
2019-06-26T17:29:30.459Z,19.05
2019-06-26T17:32:00.450Z,15.58
2019-06-26T17:34:30.458Z,16.05
2019-06-26T17:37:00.516Z,13.53
2019-06-26T17:39:30.551Z,18.27
2019-06-26T17:42:00.524Z,14.23
2019-06-26T17:44:30.564Z,17.27
2019-06-26T17:47:00.616Z,16.57
2019-06-26T17:49:30.624Z,13.50
2019-06-26T17:52:00.659Z,13.75
2019-06-26T17:54:30.673Z,17.27
2019-06-26T17:57:00.571Z,15.63
2019-06-26T17:59:30.502Z,19.92
2019-06-26T18:02:00.552Z,16.15
2019-06-26T18:04:30.500Z,19.30
2019-06-26T18:07:00.556Z,18.30
2019-06-26T18:09:30.638Z,12.60
2019-06-26T18:12:00.642Z,23.57
2019-06-26T18:14:30.648Z,16.55
2019-06-26T18:17:00.709Z,16.12
2019-06-26T18:19:42.523Z,17.98
2019-06-26T18:22:12.519Z,12.65
2019-06-26T18:24:42.595Z,13.93
2019-06-26T18:27:12.672Z,13.08
2019-06-26T18:29:42.670Z,14.95
2019-06-26T18:32:12.750Z,17.52
2019-06-26T18:34:42.874Z,14.28
2019-06-26T18:37:12.939Z,15.98
2019-06-26T18:39:43.860Z,11.43
2019-06-26T18:42:13.849Z,12.82
2019-06-26T18:44:43.945Z,13.95
2019-06-26T18:47:13.940Z,16.62
2019-06-26T18:49:44.265Z,14.18
2019-06-26T18:52:14.339Z,24.52
2019-06-26T18:54:44.358Z,15.18
2019-06-26T18:57:14.414Z,17.30
2019-06-26T18:59:44.406Z,10.65
2019-06-26T19:02:14.499Z,13.80
2019-06-26T19:04:44.517Z,15.58
2019-06-26T19:07:14.587Z,17.23
2019-06-26T19:09:44.600Z,15.20
2019-06-26T19:12:14.643Z,16.17
2019-06-26T19:14:46.148Z,15.65
2019-06-26T19:17:16.327Z,11.80
2019-06-26T19:19:46.325Z,17.20
2019-06-26T19:22:16.387Z,17.05
2019-06-26T19:24:46.416Z,14.30
2019-06-26T19:27:16.468Z,15.32
2019-06-26T19:29:46.559Z,13.58
2019-06-26T19:32:16.618Z,17.87
2019-06-26T19:34:46.699Z,21.52
2019-06-26T19:37:16.751Z,14.33
2019-06-26T19:39:46.692Z,18.87
2019-06-26T19:42:16.589Z,19.42
2019-06-26T19:44:46.614Z,13.50
2019-06-26T19:47:16.672Z,16.45
2019-06-26T19:49:46.692Z,16.62
2019-06-26T19:52:16.744Z,18.87
2019-06-26T19:54:46.836Z,18.05
2019-06-26T19:57:16.906Z,13.95
2019-06-26T19:59:47.002Z,14.90
2019-06-26T20:02:16.987Z,17.48
2019-06-26T20:04:48.409Z,15.08
2019-06-26T20:07:18.591Z,17.27
2019-06-26T20:09:48.656Z,15.70
2019-06-26T20:12:18.727Z,18.02
2019-06-26T20:14:48.756Z,22.32
2019-06-26T20:17:18.740Z,17.25
2019-06-26T20:19:48.830Z,15.53
2019-06-26T20:22:18.904Z,17.55
2019-06-26T20:24:49.001Z,15.13
2019-06-26T20:27:19.065Z,19.37
2019-06-26T20:29:49.100Z,15.45
2019-06-26T20:32:19.084Z,14.40
2019-06-26T20:34:49.021Z,15.98
2019-06-26T20:37:19.985Z,14.55
2019-06-26T20:39:49.989Z,16.80
2019-06-26T20:42:20.196Z,16.10
2019-06-26T20:44:50.220Z,14.73
2019-06-26T20:47:20.361Z,14.15
2019-06-26T20:49:53.478Z,13.70
2019-06-26T20:52:21.828Z,19.70
2019-06-26T20:55:01.008Z,14.10
2019-06-26T20:57:24.670Z,14.23
2019-06-26T20:59:54.514Z,13.80
2019-06-26T21:02:24.541Z,15.35
2019-06-26T21:04:54.606Z,17.65
2019-06-26T21:07:24.638Z,14.58
2019-06-26T21:09:54.622Z,12.88
2019-06-26T21:12:24.761Z,13.00
2019-06-26T21:14:54.823Z,13.15
2019-06-26T21:17:25.852Z,16.25
2019-06-26T21:19:56.091Z,14.53
2019-06-26T21:22:26.050Z,14.93
2019-06-26T21:24:57.698Z,16.75
2019-06-26T21:27:27.796Z,13.13
2019-06-26T21:29:57.805Z,12.75
2019-06-26T21:32:27.846Z,12.95
2019-06-26T21:34:57.836Z,12.98
2019-06-26T21:37:27.929Z,13.25
2019-06-26T21:39:58.036Z,11.53
2019-06-26T21:42:28.103Z,13.48
2019-06-26T21:44:58.243Z,13.40
2019-06-26T21:47:28.224Z,13.25
2019-06-26T21:49:58.110Z,11.55
2019-06-26T21:52:28.200Z,12.85
2019-06-26T21:54:58.296Z,14.30
2019-06-26T21:57:46.155Z,12.55
2019-06-26T22:00:35.928Z,15.13
2019-06-26T22:03:23.973Z,11.83
2019-06-26T22:05:55.755Z,20.72
2019-06-26T22:08:39.616Z,14.38
2019-06-26T22:11:11.204Z,13.90
2019-06-26T22:13:41.340Z,12.53
2019-06-26T22:16:11.508Z,22.02
2019-06-26T22:18:41.645Z,15.75
2019-06-26T22:21:11.744Z,13.58
2019-06-26T22:23:41.820Z,13.80
2019-06-26T22:26:14.174Z,13.98
2019-06-26T22:28:43.444Z,13.85
2019-06-26T22:31:13.654Z,12.30
2019-06-26T22:33:43.637Z,12.68
2019-06-26T22:36:13.706Z,11.78
2019-06-26T22:38:43.791Z,13.08
2019-06-26T22:41:13.851Z,12.85
2019-06-26T22:43:43.944Z,11.90
2019-06-26T22:46:13.930Z,17.50
2019-06-26T22:48:44.084Z,12.65
2019-06-26T22:51:14.081Z,14.65
2019-06-26T22:53:44.083Z,12.82
2019-06-26T22:56:14.155Z,13.13
2019-06-26T22:58:44.197Z,14.63
2019-06-26T23:01:14.255Z,10.72
2019-06-26T23:03:44.264Z,12.55
2019-06-26T23:06:14.353Z,14.25
2019-06-26T23:08:45.519Z,14.38
2019-06-26T23:11:15.586Z,15.10
2019-06-26T23:13:45.711Z,11.10
2019-06-26T23:16:15.703Z,17.00
2019-06-26T23:18:45.724Z,13.85
2019-06-26T23:21:15.691Z,16.23
2019-06-26T23:23:45.713Z,12.33
2019-06-26T23:26:24.088Z,8.25
2019-06-26T23:28:47.504Z,14.65
2019-06-26T23:31:17.565Z,11.15
2019-06-26T23:33:47.645Z,17.00
2019-06-26T23:36:17.694Z,13.35
2019-06-26T23:38:47.779Z,13.70
2019-06-26T23:41:18.162Z,14.60
2019-06-26T23:43:48.401Z,10.85
2019-06-26T23:46:18.463Z,11.35
2019-06-26T23:48:48.470Z,11.83
2019-06-26T23:51:18.548Z,13.03
2019-06-26T23:53:48.634Z,10.78
2019-06-26T23:56:18.736Z,10.35
2019-06-26T23:58:48.783Z,12.98
